sensor_id;sensor_type;location;lat;lon;timestamp;P1;durP1;ratioP1;P2;durP2;ratioP2
77838;SDS011;67034;43.226;27.932;2023-06-10T00:02:16;3.92;;;2.53;;
77838;SDS011;67034;43.226;27.932;2023-06-10T00:04:42;4.60;;;2.60;;
77838;SDS011;67034;43.226;27.932;2023-06-10T00:07:08;3.83;;;2.55;;
77838;SDS011;67034;43.226;27.932;2023-06-10T00:09:34;7.50;;;2.85;;
77838;SDS011;67034;43.226;27.932;2023-06-10T00:12:01;5.68;;;2.88;;
77838;SDS011;67034;43.226;27.932;2023-06-10T00:14:27;4.55;;;2.47;;
77838;SDS011;67034;43.226;27.932;2023-06-10T00:16:53;5.47;;;2.78;;
77838;SDS011;67034;43.226;27.932;2023-06-10T00:19:18;4.35;;;2.80;;
77838;SDS011;67034;43.226;27.932;2023-06-10T00:21:44;4.60;;;2.33;;
77838;SDS011;67034;43.226;27.932;2023-06-10T00:24:10;2.90;;;2.10;;
77838;SDS011;67034;43.226;27.932;2023-06-10T00:26:37;3.38;;;2.30;;
77838;SDS011;67034;43.226;27.932;2023-06-10T00:29:04;4.70;;;2.38;;
77838;SDS011;67034;43.226;27.932;2023-06-10T00:31:30;3.53;;;2.22;;
77838;SDS011;67034;43.226;27.932;2023-06-10T00:33:56;3.60;;;2.42;;
77838;SDS011;67034;43.226;27.932;2023-06-10T00:36:22;3.25;;;2.25;;
77838;SDS011;67034;43.226;27.932;2023-06-10T00:38:47;5.80;;;2.30;;
77838;SDS011;67034;43.226;27.932;2023-06-10T00:41:13;5.95;;;2.67;;
77838;SDS011;67034;43.226;27.932;2023-06-10T00:43:39;3.58;;;2.40;;
77838;SDS011;67034;43.226;27.932;2023-06-10T00:46:06;3.35;;;2.20;;
77838;SDS011;67034;43.226;27.932;2023-06-10T00:48:32;2.90;;;2.10;;
77838;SDS011;67034;43.226;27.932;2023-06-10T00:50:59;5.57;;;2.50;;
77838;SDS011;67034;43.226;27.932;2023-06-10T00:53:25;4.60;;;2.20;;
77838;SDS011;67034;43.226;27.932;2023-06-10T00:55:52;5.85;;;2.20;;
77838;SDS011;67034;43.226;27.932;2023-06-10T00:58:18;3.28;;;1.92;;
77838;SDS011;67034;43.226;27.932;2023-06-10T01:00:44;4.20;;;2.17;;
77838;SDS011;67034;43.226;27.932;2023-06-10T01:03:11;3.95;;;2.33;;
77838;SDS011;67034;43.226;27.932;2023-06-10T01:05:37;3.20;;;2.10;;
77838;SDS011;67034;43.226;27.932;2023-06-10T01:08:07;4.10;;;2.53;;
77838;SDS011;67034;43.226;27.932;2023-06-10T01:10:41;4.55;;;2.17;;
77838;SDS011;67034;43.226;27.932;2023-06-10T01:13:12;4.07;;;2.40;;
77838;SDS011;67034;43.226;27.932;2023-06-10T01:15:39;4.55;;;2.20;;
77838;SDS011;67034;43.226;27.932;2023-06-10T01:18:05;3.88;;;2.15;;
77838;SDS011;67034;43.226;27.932;2023-06-10T01:20:36;5.38;;;2.13;;
77838;SDS011;67034;43.226;27.932;2023-06-10T01:23:07;4.32;;;2.28;;
77838;SDS011;67034;43.226;27.932;2023-06-10T01:25:33;3.42;;;2.25;;
77838;SDS011;67034;43.226;27.932;2023-06-10T01:28:03;3.40;;;2.10;;
77838;SDS011;67034;43.226;27.932;2023-06-10T01:30:34;4.78;;;2.10;;
77838;SDS011;67034;43.226;27.932;2023-06-10T01:33:05;3.30;;;2.17;;
77838;SDS011;67034;43.226;27.932;2023-06-10T01:35:34;4.35;;;2.70;;
77838;SDS011;67034;43.226;27.932;2023-06-10T01:38:03;3.42;;;2.30;;
77838;SDS011;67034;43.226;27.932;2023-06-10T01:40:32;3.95;;;2.25;;
77838;SDS011;67034;43.226;27.932;2023-06-10T01:42:59;5.35;;;2.33;;
77838;SDS011;67034;43.226;27.932;2023-06-10T01:45:25;3.60;;;2.50;;
77838;SDS011;67034;43.226;27.932;2023-06-10T01:47:50;3.17;;;1.92;;
77838;SDS011;67034;43.226;27.932;2023-06-10T01:50:16;6.43;;;2.42;;
77838;SDS011;67034;43.226;27.932;2023-06-10T01:52:42;4.75;;;2.00;;
77838;SDS011;67034;43.226;27.932;2023-06-10T01:55:08;3.90;;;2.17;;
77838;SDS011;67034;43.226;27.932;2023-06-10T01:57:35;4.22;;;2.40;;
77838;SDS011;67034;43.226;27.932;2023-06-10T02:00:01;2.88;;;2.00;;
77838;SDS011;67034;43.226;27.932;2023-06-10T02:02:28;3.08;;;2.17;;
77838;SDS011;67034;43.226;27.932;2023-06-10T02:04:54;5.00;;;2.40;;
77838;SDS011;67034;43.226;27.932;2023-06-10T02:07:20;4.40;;;2.22;;
77838;SDS011;67034;43.226;27.932;2023-06-10T02:09:46;4.05;;;2.35;;
77838;SDS011;67034;43.226;27.932;2023-06-10T02:12:12;4.05;;;2.55;;
77838;SDS011;67034;43.226;27.932;2023-06-10T02:14:39;5.45;;;2.28;;
77838;SDS011;67034;43.226;27.932;2023-06-10T02:17:05;5.47;;;2.65;;
77838;SDS011;67034;43.226;27.932;2023-06-10T02:19:31;3.85;;;2.20;;
77838;SDS011;67034;43.226;27.932;2023-06-10T02:21:56;3.13;;;2.42;;
77838;SDS011;67034;43.226;27.932;2023-06-10T02:24:22;3.63;;;2.45;;
77838;SDS011;67034;43.226;27.932;2023-06-10T02:26:48;4.00;;;2.88;;
77838;SDS011;67034;43.226;27.932;2023-06-10T02:29:14;3.58;;;2.60;;
77838;SDS011;67034;43.226;27.932;2023-06-10T02:31:41;5.18;;;2.70;;
77838;SDS011;67034;43.226;27.932;2023-06-10T02:34:07;5.35;;;2.45;;
77838;SDS011;67034;43.226;27.932;2023-06-10T02:36:32;3.42;;;2.42;;
77838;SDS011;67034;43.226;27.932;2023-06-10T02:39:00;8.38;;;2.92;;
77838;SDS011;67034;43.226;27.932;2023-06-10T02:41:26;6.78;;;3.88;;
77838;SDS011;67034;43.226;27.932;2023-06-10T02:43:54;5.70;;;2.70;;
77838;SDS011;67034;43.226;27.932;2023-06-10T02:46:20;3.13;;;2.15;;
77838;SDS011;67034;43.226;27.932;2023-06-10T02:48:49;5.78;;;2.78;;
77838;SDS011;67034;43.226;27.932;2023-06-10T02:51:17;4.30;;;2.75;;
77838;SDS011;67034;43.226;27.932;2023-06-10T02:53:42;3.50;;;2.35;;
77838;SDS011;67034;43.226;27.932;2023-06-10T02:56:08;3.70;;;2.50;;
77838;SDS011;67034;43.226;27.932;2023-06-10T02:58:34;4.28;;;2.60;;
77838;SDS011;67034;43.226;27.932;2023-06-10T03:01:00;4.68;;;3.25;;
77838;SDS011;67034;43.226;27.932;2023-06-10T03:03:26;4.35;;;2.50;;
77838;SDS011;67034;43.226;27.932;2023-06-10T03:05:54;8.35;;;4.80;;
77838;SDS011;67034;43.226;27.932;2023-06-10T03:08:21;9.25;;;5.25;;
77838;SDS011;67034;43.226;27.932;2023-06-10T03:10:47;4.35;;;3.00;;
77838;SDS011;67034;43.226;27.932;2023-06-10T03:13:13;4.32;;;2.80;;
77838;SDS011;67034;43.226;27.932;2023-06-10T03:15:39;4.05;;;2.70;;
77838;SDS011;67034;43.226;27.932;2023-06-10T03:18:06;4.53;;;2.65;;
77838;SDS011;67034;43.226;27.932;2023-06-10T03:20:32;5.78;;;3.50;;
77838;SDS011;67034;43.226;27.932;2023-06-10T03:23:03;8.00;;;4.95;;
77838;SDS011;67034;43.226;27.932;2023-06-10T03:25:30;13.48;;;7.07;;
77838;SDS011;67034;43.226;27.932;2023-06-10T03:27:56;15.25;;;7.30;;
77838;SDS011;67034;43.226;27.932;2023-06-10T03:30:21;9.23;;;5.35;;
77838;SDS011;67034;43.226;27.932;2023-06-10T03:32:47;25.60;;;14.63;;
77838;SDS011;67034;43.226;27.932;2023-06-10T03:35:14;26.38;;;14.98;;
77838;SDS011;67034;43.226;27.932;2023-06-10T03:37:40;22.95;;;12.98;;
77838;SDS011;67034;43.226;27.932;2023-06-10T03:40:08;33.90;;;16.73;;
77838;SDS011;67034;43.226;27.932;2023-06-10T03:42:35;30.63;;;15.77;;
77838;SDS011;67034;43.226;27.932;2023-06-10T03:45:01;28.00;;;15.63;;
77838;SDS011;67034;43.226;27.932;2023-06-10T03:47:29;27.88;;;15.15;;
77838;SDS011;67034;43.226;27.932;2023-06-10T03:50:00;26.00;;;15.43;;
77838;SDS011;67034;43.226;27.932;2023-06-10T03:52:25;26.20;;;14.50;;
77838;SDS011;67034;43.226;27.932;2023-06-10T03:54:51;31.23;;;15.75;;
77838;SDS011;67034;43.226;27.932;2023-06-10T03:57:18;23.67;;;15.70;;
77838;SDS011;67034;43.226;27.932;2023-06-10T03:59:44;24.13;;;14.43;;
77838;SDS011;67034;43.226;27.932;2023-06-10T04:02:10;24.20;;;13.57;;
77838;SDS011;67034;43.226;27.932;2023-06-10T04:04:36;27.60;;;14.45;;
77838;SDS011;67034;43.226;27.932;2023-06-10T04:07:03;27.35;;;16.15;;
77838;SDS011;67034;43.226;27.932;2023-06-10T04:09:29;23.83;;;14.40;;
77838;SDS011;67034;43.226;27.932;2023-06-10T04:11:55;31.58;;;15.75;;
77838;SDS011;67034;43.226;27.932;2023-06-10T04:14:22;24.75;;;14.02;;
77838;SDS011;67034;43.226;27.932;2023-06-10T04:16:49;26.58;;;14.35;;
77838;SDS011;67034;43.226;27.932;2023-06-10T04:19:15;25.83;;;14.35;;
77838;SDS011;67034;43.226;27.932;2023-06-10T04:21:41;21.73;;;13.27;;
77838;SDS011;67034;43.226;27.932;2023-06-10T04:24:07;24.17;;;13.93;;
77838;SDS011;67034;43.226;27.932;2023-06-10T04:26:34;23.10;;;12.73;;
77838;SDS011;67034;43.226;27.932;2023-06-10T04:29:00;21.20;;;12.88;;
77838;SDS011;67034;43.226;27.932;2023-06-10T04:31:28;17.30;;;11.32;;
77838;SDS011;67034;43.226;27.932;2023-06-10T04:33:54;18.30;;;10.68;;
77838;SDS011;67034;43.226;27.932;2023-06-10T04:36:20;19.73;;;10.75;;
77838;SDS011;67034;43.226;27.932;2023-06-10T04:38:46;21.58;;;11.60;;
77838;SDS011;67034;43.226;27.932;2023-06-10T04:41:11;21.83;;;11.23;;
77838;SDS011;67034;43.226;27.932;2023-06-10T04:43:37;20.40;;;11.82;;
77838;SDS011;67034;43.226;27.932;2023-06-10T04:46:03;23.50;;;11.43;;
77838;SDS011;67034;43.226;27.932;2023-06-10T04:48:31;16.90;;;10.88;;
77838;SDS011;67034;43.226;27.932;2023-06-10T04:51:00;18.00;;;9.90;;
77838;SDS011;67034;43.226;27.932;2023-06-10T04:53:26;16.15;;;9.48;;
77838;SDS011;67034;43.226;27.932;2023-06-10T04:55:53;17.38;;;10.75;;
77838;SDS011;67034;43.226;27.932;2023-06-10T04:58:19;18.85;;;9.25;;
77838;SDS011;67034;43.226;27.932;2023-06-10T05:00:45;19.13;;;9.60;;
77838;SDS011;67034;43.226;27.932;2023-06-10T05:03:11;22.00;;;9.52;;
77838;SDS011;67034;43.226;27.932;2023-06-10T05:05:38;6.72;;;4.65;;
77838;SDS011;67034;43.226;27.932;2023-06-10T05:08:04;6.80;;;2.75;;
77838;SDS011;67034;43.226;27.932;2023-06-10T05:10:29;5.32;;;2.97;;
77838;SDS011;67034;43.226;27.932;2023-06-10T05:12:56;5.05;;;2.80;;
77838;SDS011;67034;43.226;27.932;2023-06-10T05:15:23;4.22;;;2.70;;
77838;SDS011;67034;43.226;27.932;2023-06-10T05:17:48;4.30;;;3.00;;
77838;SDS011;67034;43.226;27.932;2023-06-10T05:20:15;5.10;;;2.55;;
77838;SDS011;67034;43.226;27.932;2023-06-10T05:22:42;3.67;;;2.67;;
77838;SDS011;67034;43.226;27.932;2023-06-10T05:25:09;4.93;;;3.05;;
77838;SDS011;67034;43.226;27.932;2023-06-10T05:27:35;6.05;;;2.80;;
77838;SDS011;67034;43.226;27.932;2023-06-10T05:30:01;6.32;;;2.83;;
77838;SDS011;67034;43.226;27.932;2023-06-10T05:32:28;6.43;;;3.10;;
77838;SDS011;67034;43.226;27.932;2023-06-10T05:34:54;4.18;;;2.53;;
77838;SDS011;67034;43.226;27.932;2023-06-10T05:37:20;3.85;;;3.10;;
77838;SDS011;67034;43.226;27.932;2023-06-10T05:39:47;3.90;;;3.10;;
77838;SDS011;67034;43.226;27.932;2023-06-10T05:42:12;4.78;;;2.72;;
77838;SDS011;67034;43.226;27.932;2023-06-10T05:44:38;5.97;;;2.72;;
77838;SDS011;67034;43.226;27.932;2023-06-10T05:47:04;5.28;;;3.30;;
77838;SDS011;67034;43.226;27.932;2023-06-10T05:49:30;5.45;;;2.95;;
77838;SDS011;67034;43.226;27.932;2023-06-10T05:51:56;4.68;;;2.90;;
77838;SDS011;67034;43.226;27.932;2023-06-10T05:54:24;7.53;;;2.88;;
77838;SDS011;67034;43.226;27.932;2023-06-10T05:56:51;6.95;;;2.97;;
77838;SDS011;67034;43.226;27.932;2023-06-10T05:59:17;4.30;;;2.80;;
77838;SDS011;67034;43.226;27.932;2023-06-10T06:01:43;5.32;;;3.10;;
77838;SDS011;67034;43.226;27.932;2023-06-10T06:04:09;4.80;;;2.42;;
77838;SDS011;67034;43.226;27.932;2023-06-10T06:06:35;5.05;;;2.60;;
77838;SDS011;67034;43.226;27.932;2023-06-10T06:09:00;3.50;;;2.60;;
77838;SDS011;67034;43.226;27.932;2023-06-10T06:11:26;4.03;;;2.80;;
77838;SDS011;67034;43.226;27.932;2023-06-10T06:13:53;3.88;;;2.92;;
77838;SDS011;67034;43.226;27.932;2023-06-10T06:16:19;3.72;;;2.70;;
77838;SDS011;67034;43.226;27.932;2023-06-10T06:18:45;3.88;;;2.63;;
77838;SDS011;67034;43.226;27.932;2023-06-10T06:21:11;4.45;;;2.83;;
77838;SDS011;67034;43.226;27.932;2023-06-10T06:23:36;4.32;;;2.67;;
77838;SDS011;67034;43.226;27.932;2023-06-10T06:26:02;3.70;;;2.72;;
77838;SDS011;67034;43.226;27.932;2023-06-10T06:28:28;4.38;;;2.67;;
77838;SDS011;67034;43.226;27.932;2023-06-10T06:30:55;7.15;;;3.40;;
77838;SDS011;67034;43.226;27.932;2023-06-10T06:33:21;4.25;;;2.50;;
77838;SDS011;67034;43.226;27.932;2023-06-10T06:35:47;5.50;;;3.33;;
77838;SDS011;67034;43.226;27.932;2023-06-10T06:38:13;12.80;;;6.20;;
77838;SDS011;67034;43.226;27.932;2023-06-10T06:40:39;8.52;;;4.60;;
77838;SDS011;67034;43.226;27.932;2023-06-10T06:43:05;4.78;;;3.70;;
77838;SDS011;67034;43.226;27.932;2023-06-10T06:45:30;8.38;;;3.20;;
77838;SDS011;67034;43.226;27.932;2023-06-10T06:48:00;7.13;;;3.15;;
77838;SDS011;67034;43.226;27.932;2023-06-10T06:50:26;3.97;;;2.60;;
77838;SDS011;67034;43.226;27.932;2023-06-10T06:52:51;3.45;;;2.55;;
77838;SDS011;67034;43.226;27.932;2023-06-10T06:55:17;3.35;;;2.38;;
77838;SDS011;67034;43.226;27.932;2023-06-10T06:57:43;4.47;;;2.65;;
77838;SDS011;67034;43.226;27.932;2023-06-10T07:00:09;4.60;;;2.38;;
77838;SDS011;67034;43.226;27.932;2023-06-10T07:02:35;4.00;;;2.47;;
77838;SDS011;67034;43.226;27.932;2023-06-10T07:05:03;3.95;;;2.58;;
77838;SDS011;67034;43.226;27.932;2023-06-10T07:07:29;6.72;;;3.55;;
77838;SDS011;67034;43.226;27.932;2023-06-10T07:09:55;5.35;;;3.33;;
77838;SDS011;67034;43.226;27.932;2023-06-10T07:12:21;4.80;;;2.95;;
77838;SDS011;67034;43.226;27.932;2023-06-10T07:14:49;4.70;;;2.80;;
77838;SDS011;67034;43.226;27.932;2023-06-10T07:17:15;4.40;;;2.58;;
77838;SDS011;67034;43.226;27.932;2023-06-10T07:19:41;4.43;;;2.80;;
77838;SDS011;67034;43.226;27.932;2023-06-10T07:22:08;4.40;;;2.72;;
77838;SDS011;67034;43.226;27.932;2023-06-10T07:24:34;4.93;;;2.90;;
77838;SDS011;67034;43.226;27.932;2023-06-10T07:27:00;5.15;;;2.90;;
77838;SDS011;67034;43.226;27.932;2023-06-10T07:29:25;3.67;;;2.70;;
77838;SDS011;67034;43.226;27.932;2023-06-10T07:31:51;5.05;;;2.95;;
77838;SDS011;67034;43.226;27.932;2023-06-10T07:34:18;8.18;;;3.17;;
77838;SDS011;67034;43.226;27.932;2023-06-10T07:36:44;4.35;;;2.60;;
77838;SDS011;67034;43.226;27.932;2023-06-10T07:39:11;4.07;;;3.20;;
77838;SDS011;67034;43.226;27.932;2023-06-10T07:41:36;5.13;;;3.38;;
77838;SDS011;67034;43.226;27.932;2023-06-10T07:44:02;3.58;;;2.60;;
77838;SDS011;67034;43.226;27.932;2023-06-10T07:46:28;4.57;;;2.72;;
77838;SDS011;67034;43.226;27.932;2023-06-10T07:48:54;7.38;;;2.92;;
77838;SDS011;67034;43.226;27.932;2023-06-10T07:51:20;6.80;;;4.45;;
77838;SDS011;67034;43.226;27.932;2023-06-10T07:53:46;4.63;;;2.83;;
77838;SDS011;67034;43.226;27.932;2023-06-10T07:56:14;6.93;;;3.28;;
77838;SDS011;67034;43.226;27.932;2023-06-10T07:58:40;10.38;;;3.90;;
77838;SDS011;67034;43.226;27.932;2023-06-10T08:01:05;6.50;;;3.67;;
77838;SDS011;67034;43.226;27.932;2023-06-10T08:03:31;4.95;;;3.20;;
77838;SDS011;67034;43.226;27.932;2023-06-10T08:05:57;5.47;;;3.55;;
77838;SDS011;67034;43.226;27.932;2023-06-10T08:08:23;9.02;;;4.40;;
77838;SDS011;67034;43.226;27.932;2023-06-10T08:10:49;12.25;;;4.90;;
77838;SDS011;67034;43.226;27.932;2023-06-10T08:13:16;8.15;;;3.72;;
77838;SDS011;67034;43.226;27.932;2023-06-10T08:15:42;6.20;;;3.35;;
77838;SDS011;67034;43.226;27.932;2023-06-10T08:18:07;7.25;;;4.30;;
77838;SDS011;67034;43.226;27.932;2023-06-10T08:20:33;9.60;;;4.45;;
77838;SDS011;67034;43.226;27.932;2023-06-10T08:22:59;6.13;;;4.20;;
77838;SDS011;67034;43.226;27.932;2023-06-10T08:25:25;7.32;;;4.55;;
77838;SDS011;67034;43.226;27.932;2023-06-10T08:27:51;14.55;;;5.65;;
77838;SDS011;67034;43.226;27.932;2023-06-10T08:30:18;11.23;;;5.25;;
77838;SDS011;67034;43.226;27.932;2023-06-10T08:32:44;7.25;;;4.40;;
77838;SDS011;67034;43.226;27.932;2023-06-10T08:35:10;9.30;;;3.95;;
77838;SDS011;67034;43.226;27.932;2023-06-10T08:37:36;6.90;;;3.78;;
77838;SDS011;67034;43.226;27.932;2023-06-10T08:40:02;9.13;;;4.05;;
77838;SDS011;67034;43.226;27.932;2023-06-10T08:42:28;5.75;;;3.53;;
77838;SDS011;67034;43.226;27.932;2023-06-10T08:44:58;5.03;;;3.63;;
77838;SDS011;67034;43.226;27.932;2023-06-10T08:47:29;6.18;;;4.10;;
77838;SDS011;67034;43.226;27.932;2023-06-10T08:50:01;6.95;;;4.85;;
77838;SDS011;67034;43.226;27.932;2023-06-10T08:52:33;7.07;;;3.83;;
77838;SDS011;67034;43.226;27.932;2023-06-10T08:55:03;5.13;;;3.38;;
77838;SDS011;67034;43.226;27.932;2023-06-10T08:57:30;7.03;;;4.50;;
77838;SDS011;67034;43.226;27.932;2023-06-10T08:59:56;8.40;;;3.70;;
77838;SDS011;67034;43.226;27.932;2023-06-10T09:02:23;6.15;;;3.70;;
77838;SDS011;67034;43.226;27.932;2023-06-10T09:04:51;10.05;;;3.88;;
77838;SDS011;67034;43.226;27.932;2023-06-10T09:07:17;17.23;;;5.68;;
77838;SDS011;67034;43.226;27.932;2023-06-10T09:09:43;5.10;;;3.33;;
77838;SDS011;67034;43.226;27.932;2023-06-10T09:12:10;7.03;;;3.80;;
77838;SDS011;67034;43.226;27.932;2023-06-10T09:14:38;8.52;;;3.58;;
77838;SDS011;67034;43.226;27.932;2023-06-10T09:17:05;4.35;;;2.95;;
77838;SDS011;67034;43.226;27.932;2023-06-10T09:19:31;5.63;;;3.08;;
77838;SDS011;67034;43.226;27.932;2023-06-10T09:21:59;6.47;;;2.90;;
77838;SDS011;67034;43.226;27.932;2023-06-10T09:24:25;5.00;;;3.05;;
77838;SDS011;67034;43.226;27.932;2023-06-10T09:26:51;10.10;;;3.63;;
77838;SDS011;67034;43.226;27.932;2023-06-10T09:29:27;11.25;;;3.45;;
77838;SDS011;67034;43.226;27.932;2023-06-10T09:31:53;9.60;;;4.80;;
77838;SDS011;67034;43.226;27.932;2023-06-10T09:34:20;5.75;;;3.58;;
77838;SDS011;67034;43.226;27.932;2023-06-10T09:36:49;8.50;;;3.67;;
77838;SDS011;67034;43.226;27.932;2023-06-10T09:39:18;6.30;;;3.30;;
77838;SDS011;67034;43.226;27.932;2023-06-10T09:41:44;5.95;;;3.17;;
77838;SDS011;67034;43.226;27.932;2023-06-10T09:44:11;11.07;;;4.47;;
77838;SDS011;67034;43.226;27.932;2023-06-10T09:46:38;7.55;;;4.10;;
77838;SDS011;67034;43.226;27.932;2023-06-10T09:49:04;7.45;;;4.72;;
77838;SDS011;67034;43.226;27.932;2023-06-10T09:51:30;5.65;;;3.53;;
77838;SDS011;67034;43.226;27.932;2023-06-10T09:53:56;6.13;;;3.40;;
77838;SDS011;67034;43.226;27.932;2023-06-10T09:56:25;10.27;;;5.15;;
77838;SDS011;67034;43.226;27.932;2023-06-10T09:58:58;7.78;;;4.07;;
77838;SDS011;67034;43.226;27.932;2023-06-10T10:01:23;10.52;;;4.30;;
77838;SDS011;67034;43.226;27.932;2023-06-10T10:03:50;5.03;;;3.25;;
77838;SDS011;67034;43.226;27.932;2023-06-10T10:06:17;9.23;;;3.72;;
77838;SDS011;67034;43.226;27.932;2023-06-10T10:08:44;4.90;;;2.88;;
77838;SDS011;67034;43.226;27.932;2023-06-10T10:11:11;6.28;;;3.83;;
77838;SDS011;67034;43.226;27.932;2023-06-10T10:13:38;4.75;;;3.40;;
77838;SDS011;67034;43.226;27.932;2023-06-10T10:16:06;7.60;;;3.60;;
77838;SDS011;67034;43.226;27.932;2023-06-10T10:18:35;6.03;;;3.00;;
77838;SDS011;67034;43.226;27.932;2023-06-10T10:21:06;7.32;;;4.10;;
77838;SDS011;67034;43.226;27.932;2023-06-10T10:23:38;7.72;;;3.65;;
77838;SDS011;67034;43.226;27.932;2023-06-10T10:26:10;5.03;;;3.40;;
77838;SDS011;67034;43.226;27.932;2023-06-10T10:28:40;5.03;;;3.25;;
77838;SDS011;67034;43.226;27.932;2023-06-10T10:31:10;4.47;;;3.53;;
77838;SDS011;67034;43.226;27.932;2023-06-10T10:33:42;4.43;;;3.20;;
77838;SDS011;67034;43.226;27.932;2023-06-10T10:36:17;5.15;;;3.20;;
77838;SDS011;67034;43.226;27.932;2023-06-10T10:38:44;6.38;;;3.47;;
77838;SDS011;67034;43.226;27.932;2023-06-10T10:41:12;6.03;;;3.50;;
77838;SDS011;67034;43.226;27.932;2023-06-10T10:43:40;7.05;;;3.10;;
77838;SDS011;67034;43.226;27.932;2023-06-10T10:46:11;4.82;;;3.70;;
77838;SDS011;67034;43.226;27.932;2023-06-10T10:48:38;6.72;;;4.07;;
77838;SDS011;67034;43.226;27.932;2023-06-10T10:51:06;5.97;;;3.33;;
77838;SDS011;67034;43.226;27.932;2023-06-10T10:53:32;8.48;;;4.00;;
77838;SDS011;67034;43.226;27.932;2023-06-10T10:55:58;6.75;;;3.70;;
77838;SDS011;67034;43.226;27.932;2023-06-10T10:58:25;6.43;;;3.90;;
77838;SDS011;67034;43.226;27.932;2023-06-10T11:00:52;6.50;;;3.65;;
77838;SDS011;67034;43.226;27.932;2023-06-10T11:03:18;8.63;;;3.60;;
77838;SDS011;67034;43.226;27.932;2023-06-10T11:05:45;5.18;;;3.47;;
77838;SDS011;67034;43.226;27.932;2023-06-10T11:08:14;5.30;;;3.70;;
77838;SDS011;67034;43.226;27.932;2023-06-10T11:11:01;7.15;;;3.60;;
77838;SDS011;67034;43.226;27.932;2023-06-10T11:13:43;5.05;;;3.10;;
77838;SDS011;67034;43.226;27.932;2023-06-10T11:16:27;6.60;;;3.67;;
77838;SDS011;67034;43.226;27.932;2023-06-10T11:18:53;4.72;;;3.70;;
77838;SDS011;67034;43.226;27.932;2023-06-10T11:21:19;5.15;;;3.60;;
77838;SDS011;67034;43.226;27.932;2023-06-10T11:23:45;6.57;;;4.07;;
77838;SDS011;67034;43.226;27.932;2023-06-10T11:26:12;7.07;;;3.78;;
77838;SDS011;67034;43.226;27.932;2023-06-10T11:28:39;7.38;;;3.83;;
77838;SDS011;67034;43.226;27.932;2023-06-10T11:31:05;6.30;;;4.20;;
77838;SDS011;67034;43.226;27.932;2023-06-10T11:33:32;6.75;;;3.25;;
77838;SDS011;67034;43.226;27.932;2023-06-10T11:35:58;12.50;;;6.57;;
77838;SDS011;67034;43.226;27.932;2023-06-10T11:38:24;8.30;;;4.07;;
77838;SDS011;67034;43.226;27.932;2023-06-10T11:40:50;9.20;;;5.35;;
77838;SDS011;67034;43.226;27.932;2023-06-10T11:43:16;23.15;;;5.30;;
77838;SDS011;67034;43.226;27.932;2023-06-10T11:45:43;4.70;;;3.30;;
77838;SDS011;67034;43.226;27.932;2023-06-10T11:48:09;6.22;;;3.40;;
77838;SDS011;67034;43.226;27.932;2023-06-10T11:50:37;8.35;;;4.35;;
77838;SDS011;67034;43.226;27.932;2023-06-10T11:53:02;5.80;;;3.92;;
77838;SDS011;67034;43.226;27.932;2023-06-10T11:55:40;6.32;;;3.88;;
77838;SDS011;67034;43.226;27.932;2023-06-10T11:58:11;8.90;;;4.47;;
77838;SDS011;67034;43.226;27.932;2023-06-10T12:03:08;7.57;;;3.47;;
77838;SDS011;67034;43.226;27.932;2023-06-10T12:05:34;5.45;;;3.83;;
77838;SDS011;67034;43.226;27.932;2023-06-10T12:08:08;4.72;;;3.28;;
77838;SDS011;67034;43.226;27.932;2023-06-10T12:10:38;5.68;;;3.80;;
77838;SDS011;67034;43.226;27.932;2023-06-10T12:13:05;7.22;;;3.60;;
77838;SDS011;67034;43.226;27.932;2023-06-10T12:15:30;6.45;;;3.90;;
77838;SDS011;67034;43.226;27.932;2023-06-10T12:17:57;6.28;;;3.80;;
77838;SDS011;67034;43.226;27.932;2023-06-10T12:20:27;6.72;;;4.00;;
77838;SDS011;67034;43.226;27.932;2023-06-10T12:22:55;4.13;;;3.00;;
77838;SDS011;67034;43.226;27.932;2023-06-10T12:25:24;4.90;;;3.47;;
77838;SDS011;67034;43.226;27.932;2023-06-10T12:27:53;4.70;;;3.58;;
77838;SDS011;67034;43.226;27.932;2023-06-10T12:30:22;9.65;;;3.80;;
77838;SDS011;67034;43.226;27.932;2023-06-10T12:32:49;6.10;;;3.20;;
77838;SDS011;67034;43.226;27.932;2023-06-10T12:35:17;8.38;;;3.50;;
77838;SDS011;67034;43.226;27.932;2023-06-10T12:37:55;8.00;;;4.10;;
77838;SDS011;67034;43.226;27.932;2023-06-10T12:40:25;8.13;;;4.13;;
77838;SDS011;67034;43.226;27.932;2023-06-10T12:42:53;5.75;;;3.70;;
77838;SDS011;67034;43.226;27.932;2023-06-10T12:45:25;7.65;;;3.47;;
77838;SDS011;67034;43.226;27.932;2023-06-10T12:47:52;7.18;;;3.78;;
77838;SDS011;67034;43.226;27.932;2023-06-10T12:50:17;8.52;;;3.40;;
77838;SDS011;67034;43.226;27.932;2023-06-10T12:52:43;6.13;;;3.80;;
77838;SDS011;67034;43.226;27.932;2023-06-10T12:55:10;4.78;;;3.40;;
77838;SDS011;67034;43.226;27.932;2023-06-10T12:57:36;6.60;;;3.78;;
77838;SDS011;67034;43.226;27.932;2023-06-10T13:00:02;7.57;;;3.53;;
77838;SDS011;67034;43.226;27.932;2023-06-10T13:02:29;5.15;;;3.33;;
77838;SDS011;67034;43.226;27.932;2023-06-10T13:04:55;5.25;;;3.60;;
77838;SDS011;67034;43.226;27.932;2023-06-10T13:07:21;6.13;;;3.50;;
77838;SDS011;67034;43.226;27.932;2023-06-10T13:09:48;5.50;;;4.00;;
77838;SDS011;67034;43.226;27.932;2023-06-10T13:12:15;5.03;;;3.50;;
77838;SDS011;67034;43.226;27.932;2023-06-10T13:14:42;5.30;;;3.25;;
77838;SDS011;67034;43.226;27.932;2023-06-10T13:17:08;5.45;;;3.95;;
77838;SDS011;67034;43.226;27.932;2023-06-10T13:19:34;8.27;;;3.70;;
77838;SDS011;67034;43.226;27.932;2023-06-10T13:22:00;4.82;;;3.47;;
77838;SDS011;67034;43.226;27.932;2023-06-10T13:24:26;6.40;;;3.55;;
77838;SDS011;67034;43.226;27.932;2023-06-10T13:26:52;5.78;;;3.80;;
77838;SDS011;67034;43.226;27.932;2023-06-10T13:29:19;7.43;;;4.10;;
77838;SDS011;67034;43.226;27.932;2023-06-10T13:31:45;5.38;;;4.30;;
77838;SDS011;67034;43.226;27.932;2023-06-10T13:34:11;4.72;;;3.90;;
77838;SDS011;67034;43.226;27.932;2023-06-10T13:36:37;4.95;;;3.50;;
77838;SDS011;67034;43.226;27.932;2023-06-10T13:39:02;5.38;;;3.85;;
77838;SDS011;67034;43.226;27.932;2023-06-10T13:41:28;8.70;;;4.20;;
77838;SDS011;67034;43.226;27.932;2023-06-10T13:43:54;12.57;;;6.55;;
77838;SDS011;67034;43.226;27.932;2023-06-10T13:46:21;5.60;;;3.80;;
77838;SDS011;67034;43.226;27.932;2023-06-10T13:48:47;8.52;;;4.47;;
77838;SDS011;67034;43.226;27.932;2023-06-10T13:51:13;9.63;;;4.90;;
77838;SDS011;67034;43.226;27.932;2023-06-10T13:53:39;14.77;;;4.68;;
77838;SDS011;67034;43.226;27.932;2023-06-10T13:56:05;7.53;;;3.95;;
77838;SDS011;67034;43.226;27.932;2023-06-10T13:58:30;8.02;;;3.85;;
77838;SDS011;67034;43.226;27.932;2023-06-10T14:00:56;8.95;;;4.15;;
77838;SDS011;67034;43.226;27.932;2023-06-10T14:03:25;8.45;;;4.18;;
77838;SDS011;67034;43.226;27.932;2023-06-10T14:05:51;12.52;;;4.68;;
77838;SDS011;67034;43.226;27.932;2023-06-10T14:08:16;6.38;;;3.72;;
77838;SDS011;67034;43.226;27.932;2023-06-10T14:10:42;6.20;;;3.38;;
77838;SDS011;67034;43.226;27.932;2023-06-10T14:13:08;9.23;;;3.92;;
77838;SDS011;67034;43.226;27.932;2023-06-10T14:15:34;4.68;;;3.60;;
77838;SDS011;67034;43.226;27.932;2023-06-10T14:18:00;4.53;;;3.25;;
77838;SDS011;67034;43.226;27.932;2023-06-10T14:20:27;4.68;;;2.95;;
77838;SDS011;67034;43.226;27.932;2023-06-10T14:22:56;4.90;;;3.28;;
77838;SDS011;67034;43.226;27.932;2023-06-10T14:25:22;5.65;;;3.22;;
77838;SDS011;67034;43.226;27.932;2023-06-10T14:27:48;6.78;;;3.20;;
77838;SDS011;67034;43.226;27.932;2023-06-10T14:30:14;6.68;;;3.25;;
77838;SDS011;67034;43.226;27.932;2023-06-10T14:32:40;8.30;;;3.60;;